BAW704 EGLL-LCLK
Flight info
| Callsign | BAW704 |
|---|---|
| Flight time | N/A |
| Altitude | 39000 |
| Route | DET2F DET L6 DVR UL9 KONAN DCT KOK DCT REMBA DCT SPI DCT ULNOK DCT VIBOM DCT NOMBO DCT RIDAR DCT GOMIG DCT GOTAR DCT BABIT DCT KOTUS DCT NISVA N131 USALI DCT RODIP DCT BELGI UN131 KULAR UT39 TOMBI M855 DASNI M601 BONEK BONEK1R |
| Aircraft | A20N/M-SDGIJ1LRWXY/SB1 |
Departure
| Time | N/A |
|---|---|
| Airport | London Heathrow Airport (EGLL) |
Arrival
| Time | 2026-05-04 21:19 |
|---|---|
| Airport | Larnaca International Airport (LCLK) |
| Time | Latitude | Longitude | Altitude | Speed | Heading |
|---|---|---|---|---|---|
| 2026-05-04 21:04 | 34.99007 | 33.04436 | 36946 ft | 422 kts | 167° |
| 2026-05-04 21:04 | 34.96263 | 33.05561 | 36294 ft | 415 kts | 167° |
| 2026-05-04 21:04 | 34.93564 | 33.06945 | 35234 ft | 427 kts | 162° |
| 2026-05-04 21:05 | 34.90844 | 33.08533 | 33947 ft | 440 kts | 161° |
| 2026-05-04 21:05 | 34.88054 | 33.10199 | 32505 ft | 451 kts | 161° |
| 2026-05-04 21:05 | 34.85196 | 33.11851 | 31199 ft | 457 kts | 161° |
| 2026-05-04 21:05 | 34.82282 | 33.13470 | 29876 ft | 462 kts | 161° |
| 2026-05-04 21:06 | 34.79317 | 33.15055 | 28191 ft | 469 kts | 161° |
| 2026-05-04 21:06 | 34.76301 | 33.16646 | 26529 ft | 475 kts | 160° |
| 2026-05-04 21:06 | 34.73419 | 33.18680 | 24973 ft | 484 kts | 147° |
| 2026-05-04 21:06 | 34.70876 | 33.21405 | 23498 ft | 491 kts | 135° |
| 2026-05-04 21:07 | 34.68815 | 33.24716 | 22041 ft | 490 kts | 123° |
| 2026-05-04 21:07 | 34.67343 | 33.28417 | 20709 ft | 485 kts | 110° |
| 2026-05-04 21:07 | 34.66512 | 33.32304 | 19462 ft | 479 kts | 98° |
| 2026-05-04 21:07 | 34.66333 | 33.36310 | 18255 ft | 471 kts | 86° |
| 2026-05-04 21:08 | 34.66768 | 33.40214 | 16978 ft | 461 kts | 73° |
| 2026-05-04 21:08 | 34.67859 | 33.43821 | 15780 ft | 448 kts | 60° |
| 2026-05-04 21:08 | 34.69517 | 33.46961 | 14583 ft | 437 kts | 48° |
| 2026-05-04 21:08 | 34.71352 | 33.49873 | 13395 ft | 432 kts | 49° |
| 2026-05-04 21:09 | 34.72551 | 33.51794 | 12622 ft | 427 kts | 50° |
| 2026-05-04 21:09 | 34.74329 | 33.54636 | 11498 ft | 419 kts | 50° |
| 2026-05-04 21:09 | 34.76082 | 33.57438 | 10390 ft | 413 kts | 50° |
| 2026-05-04 21:09 | 34.77809 | 33.60198 | 9345 ft | 405 kts | 51° |
| 2026-05-04 21:10 | 34.80026 | 33.63745 | 7942 ft | 393 kts | 51° |
| 2026-05-04 21:10 | 34.81140 | 33.65530 | 7388 ft | 386 kts | 51° |
| 2026-05-04 21:10 | 34.82693 | 33.68028 | 7271 ft | 355 kts | 51° |
| 2026-05-04 21:10 | 34.84132 | 33.70346 | 7071 ft | 331 kts | 51° |
| 2026-05-04 21:11 | 34.85468 | 33.72498 | 6780 ft | 314 kts | 51° |
| 2026-05-04 21:11 | 34.86749 | 33.74576 | 6485 ft | 299 kts | 51° |
| 2026-05-04 21:11 | 34.87965 | 33.76563 | 6183 ft | 286 kts | 51° |
| 2026-05-04 21:11 | 34.89126 | 33.78473 | 5869 ft | 275 kts | 51° |
| 2026-05-04 21:12 | 34.90231 | 33.80298 | 5544 ft | 256 kts | 51° |
| 2026-05-04 21:12 | 34.91235 | 33.81964 | 5233 ft | 232 kts | 51° |
| 2026-05-04 21:12 | 34.92259 | 33.83405 | 4840 ft | 224 kts | 37° |
| 2026-05-04 21:12 | 34.93575 | 33.84321 | 4207 ft | 213 kts | 5° |
| 2026-05-04 21:13 | 34.94992 | 33.84212 | 3461 ft | 201 kts | 329° |
| 2026-05-04 21:13 | 34.95952 | 33.83204 | 3327 ft | 172 kts | 303° |
| 2026-05-04 21:13 | 34.96549 | 33.81982 | 3246 ft | 165 kts | 294° |
| 2026-05-04 21:13 | 34.96937 | 33.80677 | 3100 ft | 163 kts | 281° |
| 2026-05-04 21:14 | 34.97096 | 33.79333 | 2949 ft | 165 kts | 275° |
| 2026-05-04 21:14 | 34.97046 | 33.77949 | 2802 ft | 160 kts | 260° |
| 2026-05-04 21:14 | 34.96799 | 33.76621 | 2603 ft | 164 kts | 262° |
| 2026-05-04 21:14 | 34.96597 | 33.75242 | 2385 ft | 162 kts | 263° |
| 2026-05-04 21:15 | 34.96329 | 33.73924 | 2184 ft | 162 kts | 249° |
| 2026-05-04 21:15 | 34.95744 | 33.72800 | 2001 ft | 148 kts | 237° |
| 2026-05-04 21:15 | 34.95106 | 33.71932 | 1818 ft | 128 kts | 234° |
| 2026-05-04 21:15 | 34.94481 | 33.71131 | 1671 ft | 135 kts | 232° |
| 2026-05-04 21:16 | 34.93835 | 33.70332 | 1510 ft | 131 kts | 226° |
| 2026-05-04 21:16 | 34.93226 | 33.69583 | 1350 ft | 118 kts | 230° |
| 2026-05-04 21:16 | 34.92640 | 33.68863 | 1203 ft | 121 kts | 231° |
| 2026-05-04 21:16 | 34.92028 | 33.68106 | 1031 ft | 132 kts | 234° |
| 2026-05-04 21:17 | 34.91372 | 33.67305 | 875 ft | 130 kts | 231° |
| 2026-05-04 21:17 | 34.90747 | 33.66582 | 763 ft | 122 kts | 228° |
| 2026-05-04 21:17 | 34.90162 | 33.65816 | 616 ft | 119 kts | 239° |
| 2026-05-04 21:17 | 34.89587 | 33.65136 | 433 ft | 114 kts | 229° |
| 2026-05-04 21:18 | 34.89042 | 33.64441 | 268 ft | 120 kts | 229° |
| 2026-05-04 21:18 | 34.88462 | 33.63729 | 115 ft | 115 kts | 228° |
| 2026-05-04 21:18 | 34.87890 | 33.63029 | 33 ft | 113 kts | 226° |
| 2026-05-04 21:18 | 34.87406 | 33.62431 | 21 ft | 74 kts | 225° |
| 2026-05-04 21:19 | 34.87120 | 33.62083 | 22 ft | 53 kts | 226° |
| 2026-05-04 21:19 | 34.86958 | 33.61753 | 22 ft | 30 kts | 255° |
| 2026-05-04 21:19 | 34.86915 | 33.61562 | 21 ft | 23 kts | 260° |
| 2026-05-04 21:19 | 34.86851 | 33.61393 | 20 ft | 22 kts | 225° |
| 2026-05-04 21:20 | 34.86740 | 33.61257 | 20 ft | 23 kts | 225° |
| 2026-05-04 21:20 | 34.86634 | 33.61121 | 20 ft | 19 kts | 243° |
| 2026-05-04 21:20 | 34.86669 | 33.61039 | 20 ft | 12 kts | 318° |
| 2026-05-04 21:20 | 34.86755 | 33.60934 | 20 ft | 20 kts | 315° |
| 2026-05-04 21:21 | 34.86837 | 33.60867 | 20 ft | 8 kts | 22° |
| 2026-05-04 21:21 | 34.86859 | 33.60901 | 21 ft | 6 kts | 47° |
| 2026-05-04 21:21 | 34.86877 | 33.60924 | 21 ft | 0 kts | 45° |